Time;durP1;ratioP1;P1;durP2;ratioP2;P2;SDS_P1;SDS_P2;PMS_P1;PMS_P2;Temp;Humidity;BMP_temperature;BMP_pressure;BME280_temperature;BME280_humidity;BME280_pressure;Samples;Min_cycle;Max_cycle;Signal;HPM_P1;HPM_P2
2023/03/07 00:01:02;;;;;;;9.93;7.18;;;;;;;7.73;74.07;62796.03;5046720;28;20452;-81
2023/03/07 00:03:30;;;;;;;8.48;6.45;;;;;;;7.70;71.95;62790.41;5050207;28;20434;-80
2023/03/07 00:06:02;;;;;;;10.80;7.20;;;;;;;7.77;73.34;62797.63;5051994;28;20217;-84
2023/03/07 00:08:30;;;;;;;9.20;6.50;;;;;;;7.74;72.84;62797.06;5049994;28;20201;-79
2023/03/07 00:11:02;;;;;;;7.55;6.40;;;;;;;7.64;73.08;62784.22;5049616;28;22390;-80
2023/03/07 00:13:31;;;;;;;7.72;6.05;;;;;;;7.74;73.75;62796.56;5039672;28;20198;-80
2023/03/07 00:16:02;;;;;;;7.60;5.68;;;;;;;7.79;72.72;62802.22;5030307;28;20257;-78
2023/03/07 00:18:29;;;;;;;9.75;6.43;;;;;;;7.80;72.29;62803.25;5039923;28;20237;-79
2023/03/07 00:20:59;;;;;;;8.75;6.35;;;;;;;7.73;72.67;62796.03;5049566;28;20495;-79
2023/03/07 00:23:27;;;;;;;8.68;6.43;;;;;;;7.68;73.09;62788.34;5049176;28;20503;-79
2023/03/07 00:26:03;;;;;;;12.70;7.60;;;;;;;7.65;73.03;62785.25;5048692;28;20572;-81
2023/03/07 00:28:31;;;;;;;12.52;8.55;;;;;;;7.60;73.55;62779.56;5048135;28;20228;-80
2023/03/07 00:31:00;;;;;;;9.63;7.80;;;;;;;7.53;73.35;62775.38;5049830;28;20194;-79
2023/03/07 00:33:27;;;;;;;15.82;8.40;;;;;;;7.52;73.10;62771.84;5051402;28;20198;-78
2023/03/07 00:35:56;;;;;;;16.63;7.65;;;;;;;7.29;74.93;62748.09;5048233;28;20244;-80
2023/03/07 00:38:23;;;;;;;11.60;8.23;;;;;;;7.24;74.55;62744.94;5049304;28;20226;-79
2023/03/07 00:40:57;;;;;;;15.75;8.27;;;;;;;7.23;75.66;62746.44;5046880;28;20533;-79
2023/03/07 00:43:26;;;;;;;13.65;8.43;;;;;;;7.15;75.86;62730.59;5049752;28;20202;-80
2023/03/07 00:45:53;;;;;;;10.50;7.50;;;;;;;6.97;77.87;62715.59;5038151;28;20281;-79
2023/03/07 00:48:20;;;;;;;13.32;7.85;;;;;;;6.92;77.94;62709.91;5031445;28;20202;-79
2023/03/07 00:50:47;;;;;;;13.45;7.50;;;;;;;6.98;77.14;62714.09;5029723;28;20198;-79
2023/03/07 00:53:14;;;;;;;9.88;7.03;;;;;;;6.86;78.28;62699.19;5029254;28;20373;-78
2023/03/07 00:55:42;;;;;;;10.07;7.03;;;;;;;6.89;78.57;62706.81;5044419;28;20373;-79
2023/03/07 00:58:09;;;;;;;10.73;7.57;;;;;;;6.95;78.36;62713.50;5038628;28;20302;-79
2023/03/07 01:00:37;;;;;;;11.20;7.43;;;;;;;6.94;78.58;62717.56;5030947;28;23262;-79
2023/03/07 01:03:04;;;;;;;12.30;7.97;;;;;;;6.78;79.52;62698.50;5047354;28;20226;-79
2023/03/07 01:05:31;;;;;;;9.57;7.13;;;;;;;6.64;82.21;62683.56;5048222;28;20197;-79
2023/03/07 01:07:58;;;;;;;9.80;7.40;;;;;;;6.75;80.87;62692.88;5042890;28;20233;-79
2023/03/07 01:10:28;;;;;;;13.60;7.45;;;;;;;6.75;81.80;62694.91;5048821;28;20518;-79
2023/03/07 01:12:54;;;;;;;12.88;7.53;;;;;;;6.84;80.44;62704.19;5047018;28;20260;-79
2023/03/07 01:15:22;;;;;;;8.65;6.88;;;;;;;6.86;80.65;62704.25;5047921;28;20230;-79
2023/03/07 01:17:51;;;;;;;11.20;7.13;;;;;;;6.81;81.03;62698.56;5048573;28;20241;-79
2023/03/07 01:20:18;;;;;;;9.68;6.57;;;;;;;6.85;80.59;62703.19;5048613;28;20213;-79
2023/03/07 01:22:45;;;;;;;12.48;6.75;;;;;;;6.86;79.72;62703.72;5046578;28;20272;-80
2023/03/07 01:25:13;;;;;;;11.52;7.05;;;;;;;6.77;80.36;62689.91;5046198;28;20471;-80
2023/03/07 01:27:40;;;;;;;10.07;6.90;;;;;;;6.74;81.07;62694.41;5044870;28;20404;-80
2023/03/07 01:30:08;;;;;;;10.55;6.85;;;;;;;6.51;83.39;62668.13;5045802;28;20218;-79
2023/03/07 01:32:35;;;;;;;10.48;6.65;;;;;;;6.53;83.81;62672.22;5051629;28;20226;-79
2023/03/07 01:35:05;;;;;;;8.52;6.20;;;;;;;6.67;81.52;62687.19;5045118;28;20254;-80
2023/03/07 01:37:32;;;;;;;7.90;6.13;;;;;;;6.60;81.81;62677.44;5048026;28;20218;-80
2023/03/07 01:39:59;;;;;;;9.48;5.93;;;;;;;6.37;85.15;62653.19;5046266;28;20200;-79
2023/03/07 01:42:30;;;;;;;9.35;6.82;;;;;;;6.36;87.06;62649.63;5047852;28;20213;-80
2023/03/07 01:45:04;;;;;;;12.93;6.53;;;;;;;6.41;86.37;62660.38;5046829;28;20202;-79
2023/03/07 01:47:31;;;;;;;10.65;6.65;;;;;;;6.41;85.91;62660.38;5048426;28;20221;-80
2023/03/07 01:50:02;;;;;;;7.80;5.80;;;;;;;6.47;84.83;62660.97;5047250;28;20605;-79
2023/03/07 01:52:34;;;;;;;7.85;6.10;;;;;;;6.55;84.95;62674.81;5047791;28;20294;-80
2023/03/07 01:55:05;;;;;;;10.05;6.72;;;;;;;6.61;84.31;62680.47;5047170;28;20449;-80
2023/03/07 01:57:36;;;;;;;9.18;6.57;;;;;;;6.58;82.99;62672.84;5046267;28;20518;-78
2023/03/07 02:00:09;;;;;;;9.73;7.50;;;;;;;6.68;82.33;62685.66;5047901;28;20206;-78
2023/03/07 02:02:37;;;;;;;8.68;5.97;;;;;;;6.73;81.70;62690.31;5047220;28;20289;-79
2023/03/07 02:05:10;;;;;;;9.77;6.90;;;;;;;6.74;81.36;62693.88;5047660;28;20198;-80
2023/03/07 02:07:42;;;;;;;7.93;5.80;;;;;;;6.65;82.19;62682.06;5046213;28;20560;-79
2023/03/07 02:10:12;;;;;;;7.88;6.07;;;;;;;6.65;81.91;62685.13;5045590;28;20509;-79
2023/03/07 02:12:40;;;;;;;7.60;6.00;;;;;;;6.56;80.59;62673.28;5047932;28;20273;-79
2023/03/07 02:15:09;;;;;;;12.63;7.13;;;;;;;6.59;80.86;62675.88;5045703;28;20572;-81
2023/03/07 02:17:37;;;;;;;7.05;5.80;;;;;;;6.68;80.42;62683.13;5049063;28;20218;-80
2023/03/07 02:20:19;;;;;;;10.10;6.65;;;;;;;6.60;80.17;62677.44;5046122;28;20282;-80
2023/03/07 02:22:49;;;;;;;9.40;6.38;;;;;;;6.57;80.38;62676.34;5046792;28;20213;-79
2023/03/07 02:25:22;;;;;;;6.90;5.85;;;;;;;6.59;80.49;62671.31;5045685;28;20236;-80
2023/03/07 02:27:53;;;;;;;13.02;6.45;;;;;;;6.49;80.44;62663.03;5046614;28;20342;-80
2023/03/07 02:30:20;;;;;;;9.82;7.15;;;;;;;6.51;80.35;62668.13;5046184;28;20206;-80
2023/03/07 02:32:47;;;;;;;7.82;6.50;;;;;;;6.53;81.05;62672.75;5047754;28;20277;-79
2023/03/07 02:35:17;;;;;;;10.38;6.53;;;;;;;6.61;80.42;62675.41;5047410;28;20229;-79
2023/03/07 02:37:47;;;;;;;11.40;7.05;;;;;;;6.56;80.08;62670.25;5045061;28;20214;-79
2023/03/07 02:40:19;;;;;;;9.38;6.15;;;;;;;6.57;80.23;62676.88;5046113;28;20224;-77
2023/03/07 02:42:47;;;;;;;10.65;7.07;;;;;;;6.62;81.24;62678.97;5044984;28;20297;-79
2023/03/07 02:45:18;;;;;;;10.25;6.45;;;;;;;6.64;80.97;62684.06;5048208;28;20197;-80
2023/03/07 02:47:46;;;;;;;8.05;6.25;;;;;;;6.65;80.97;62685.13;5034465;28;20222;-81
2023/03/07 02:50:15;;;;;;;9.43;6.78;;;;;;;6.69;80.58;62686.19;5027098;28;20202;-80
2023/03/07 02:52:42;;;;;;;7.93;6.07;;;;;;;6.69;81.16;62686.72;5038878;28;20481;-80
2023/03/07 02:55:10;;;;;;;8.50;6.28;;;;;;;6.67;81.93;62684.66;5046443;28;20197;-81
2023/03/07 02:57:37;;;;;;;6.88;5.40;;;;;;;6.69;82.19;62691.25;5027236;28;20222;-79
2023/03/07 03:00:07;;;;;;;8.10;5.30;;;;;;;6.70;81.62;62687.75;5026626;28;20198;-80
2023/03/07 03:02:35;;;;;;;10.02;4.97;;;;;;;6.63;81.42;62683.03;5046830;28;20257;-80
2023/03/07 03:05:03;;;;;;;9.90;5.50;;;;;;;6.68;81.69;62687.69;5046529;28;20218;-79
2023/03/07 03:07:30;;;;;;;10.05;6.10;;;;;;;6.68;81.81;62687.69;5047931;28;20533;-79
2023/03/07 03:09:57;;;;;;;6.13;5.53;;;;;;;6.55;83.00;62672.28;5045909;28;20214;-79
2023/03/07 03:12:24;;;;;;;6.95;5.78;;;;;;;6.58;83.19;62672.31;5045694;28;20229;-79
2023/03/07 03:14:51;;;;;;;8.65;5.68;;;;;;;6.70;82.83;62687.22;5033611;28;20258;-78
2023/03/07 03:17:18;;;;;;;7.65;5.20;;;;;;;6.70;82.17;62690.25;5027807;28;20242;-79
2023/03/07 03:19:46;;;;;;;11.75;5.72;;;;;;;6.74;82.33;62688.81;5039348;28;20557;-79
2023/03/07 03:22:13;;;;;;;10.43;5.68;;;;;;;6.72;82.62;62689.28;5046583;28;20222;-79
2023/03/07 03:24:41;;;;;;;9.20;6.13;;;;;;;6.78;81.31;62695.47;5045706;28;20213;-80
2023/03/07 03:27:08;;;;;;;8.48;5.20;;;;;;;6.73;81.58;62692.84;5037352;28;20280;-80
2023/03/07 03:29:35;;;;;;;6.72;5.22;;;;;;;6.76;82.52;62691.41;5046279;28;20498;-80
2023/03/07 03:32:03;;;;;;;6.72;5.18;;;;;;;6.79;81.79;62696.50;5046061;28;20233;-79
2023/03/07 03:34:30;;;;;;;7.90;5.75;;;;;;;6.78;81.45;62692.94;5049184;28;20202;-79
2023/03/07 03:36:59;;;;;;;5.60;4.47;;;;;;;6.69;82.05;62684.19;5043628;28;20233;-79
2023/03/07 03:39:27;;;;;;;5.70;4.53;;;;;;;6.52;84.21;62671.69;5045988;28;20224;-80
2023/03/07 03:41:55;;;;;;;7.03;5.85;;;;;;;6.61;83.90;62675.41;5046143;28;20233;-80
2023/03/07 03:44:23;;;;;;;5.28;4.78;;;;;;;6.72;83.07;62692.34;5046195;28;20312;-80
2023/03/07 03:46:50;;;;;;;6.57;5.10;;;;;;;6.69;82.77;62686.72;5044927;28;20278;-80
2023/03/07 03:49:18;;;;;;;4.93;4.45;;;;;;;6.72;82.78;62686.75;5047456;28;20202;-79
2023/03/07 03:51:45;;;;;;;5.38;4.88;;;;;;;6.70;82.77;62687.75;5029122;28;20416;-79
2023/03/07 03:54:13;;;;;;;7.65;5.38;;;;;;;6.77;82.55;62692.44;5026503;28;20214;-81
2023/03/07 03:56:40;;;;;;;11.90;5.28;;;;;;;6.82;82.31;62699.59;5043952;28;20237;-79
2023/03/07 03:59:07;;;;;;;6.40;5.28;;;;;;;6.84;82.02;62704.72;5040845;28;20206;-78
2023/03/07 04:01:35;;;;;;;6.03;5.25;;;;;;;6.87;81.13;62709.81;5025398;28;20413;-79
2023/03/07 04:04:01;;;;;;;11.00;5.70;;;;;;;6.91;81.07;62709.41;5027227;28;20550;-80
2023/03/07 04:06:31;;;;;;;6.88;5.32;;;;;;;6.97;80.67;62718.13;5026914;28;20221;-80
2023/03/07 04:08:58;;;;;;;9.55;6.32;;;;;;;7.00;80.30;62718.69;5027072;28;20269;-80
2023/03/07 04:11:27;;;;;;;8.30;5.57;;;;;;;7.01;80.67;62719.19;5025830;28;20218;-79
2023/03/07 04:13:53;;;;;;;6.93;5.50;;;;;;;7.07;79.79;62727.41;5037840;28;20198;-80
2023/03/07 04:16:21;;;;;;;9.35;5.95;;;;;;;6.99;80.96;62719.66;5045796;28;20241;-80
2023/03/07 04:18:49;;;;;;;8.18;6.15;;;;;;;6.73;83.65;62695.88;5043395;28;20209;-80
2023/03/07 04:21:16;;;;;;;11.20;6.68;;;;;;;6.84;82.98;62704.72;5047569;28;20236;-81
2023/03/07 04:23:44;;;;;;;8.98;5.25;;;;;;;6.93;82.05;62713.47;5045873;28;20228;-81
2023/03/07 04:26:11;;;;;;;7.80;6.03;;;;;;;6.87;82.11;62707.81;5040008;28;20551;-79
2023/03/07 04:28:44;;;;;;;8.10;6.22;;;;;;;6.95;82.00;62718.56;5043510;28;20206;-80
2023/03/07 04:31:13;;;;;;;9.65;5.85;;;;;;;6.87;82.12;62707.28;5045617;28;20221;-81
2023/03/07 04:33:40;;;;;;;9.30;6.30;;;;;;;6.73;83.38;62692.84;5045056;28;20483;-80
2023/03/07 04:36:08;;;;;;;8.07;6.25;;;;;;;6.62;83.47;62678.97;5044895;28;20284;-80
2023/03/07 04:38:37;;;;;;;10.15;7.10;;;;;;;6.80;82.93;62695.50;5048185;28;20224;-80
2023/03/07 04:41:04;;;;;;;7.65;6.40;;;;;;;6.75;82.88;62692.88;5044745;28;20240;-80
2023/03/07 04:43:31;;;;;;;7.05;6.28;;;;;;;6.57;84.50;62671.28;5045341;28;20273;-79
2023/03/07 04:45:59;;;;;;;12.43;6.40;;;;;;;6.54;85.07;62666.16;5042176;28;20240;-79
2023/03/07 04:48:26;;;;;;;10.05;7.07;;;;;;;6.60;85.10;62679.44;5046930;28;20258;-79
2023/03/07 04:50:53;;;;;;;9.18;6.95;;;;;;;6.71;85.09;62686.22;5049082;28;20237;-79
2023/03/07 04:53:21;;;;;;;11.82;7.97;;;;;;;6.72;85.05;62692.34;5049466;28;20206;-80
2023/03/07 04:55:48;;;;;;;10.02;6.82;;;;;;;6.73;84.57;62692.84;5049108;28;20535;-79
2023/03/07 04:58:15;;;;;;;10.55;7.55;;;;;;;6.70;85.10;62690.25;5048217;28;20198;-78
2023/03/07 05:00:43;;;;;;;9.05;6.50;;;;;;;6.73;86.19;62690.31;5046587;28;20214;-79
2023/03/07 05:03:13;;;;;;;11.90;7.68;;;;;;;6.68;86.25;62685.16;5046932;28;20333;-80
2023/03/07 05:05:40;;;;;;;16.98;8.43;;;;;;;6.67;86.48;62684.13;5049041;28;20257;-82
2023/03/07 05:08:07;;;;;;;10.43;7.90;;;;;;;6.82;85.48;62704.66;5044515;28;20225;-79
2023/03/07 05:10:36;;;;;;;9.10;7.50;;;;;;;6.73;86.46;62692.84;5046221;28;20202;-78
2023/03/07 05:13:03;;;;;;;10.82;7.65;;;;;;;6.41;89.24;62662.88;5037742;28;20268;-78
2023/03/07 05:15:30;;;;;;;10.10;7.22;;;;;;;6.38;90.82;62657.28;5045576;28;20260;-79
2023/03/07 05:17:57;;;;;;;9.45;7.32;;;;;;;6.54;90.58;62671.22;5046260;28;20233;-79
2023/03/07 05:20:28;;;;;;;11.32;7.85;;;;;;;6.70;89.85;62684.69;5048530;28;20214;-79
2023/03/07 05:22:55;;;;;;;9.90;7.07;;;;;;;6.81;89.19;62699.09;5046008;28;20279;-79
2023/03/07 05:25:22;;;;;;;12.50;7.60;;;;;;;6.80;89.04;62700.06;5044656;28;20226;-78
2023/03/07 05:27:50;;;;;;;11.48;7.60;;;;;;;6.74;90.42;62688.81;5045352;28;20225;-79
2023/03/07 05:30:17;;;;;;;13.45;7.35;;;;;;;6.91;89.30;62706.34;5048491;28;20209;-80
2023/03/07 05:32:44;;;;;;;11.65;7.53;;;;;;;7.02;87.82;62720.75;5039868;28;20222;-80
2023/03/07 05:35:12;;;;;;;11.75;8.02;;;;;;;7.01;87.56;62721.72;5042252;28;20249;-81
2023/03/07 05:37:40;;;;;;;12.13;7.30;;;;;;;7.20;86.94;62738.28;5048299;28;20234;-78
2023/03/07 05:40:09;;;;;;;14.10;8.77;;;;;;;7.25;87.00;62745.97;5046723;28;20272;-78
2023/03/07 05:42:36;;;;;;;11.77;8.35;;;;;;;7.39;86.98;62755.88;5047618;28;20214;-78
2023/03/07 05:45:05;;;;;;;12.85;7.63;;;;;;;7.51;86.12;62770.78;5046321;28;20547;-81
2023/03/07 05:47:32;;;;;;;17.58;8.85;;;;;;;7.65;84.17;62785.25;5046955;28;20293;-81
2023/03/07 05:49:59;;;;;;;9.55;7.20;;;;;;;7.61;84.01;62786.19;5037587;28;20201;-81
2023/03/07 05:52:27;;;;;;;11.57;7.60;;;;;;;7.45;85.06;62767.13;5047832;28;20226;-80
2023/03/07 05:54:56;;;;;;;15.18;8.07;;;;;;;7.60;85.45;62779.56;5035383;28;20202;-80
2023/03/07 05:57:23;;;;;;;11.98;7.50;;;;;;;7.65;85.07;62782.72;5046583;28;20237;-79
2023/03/07 05:59:50;;;;;;;16.23;8.32;;;;;;;7.50;84.94;62769.75;5046219;28;20202;-80
2023/03/07 06:02:17;;;;;;;10.18;7.93;;;;;;;7.37;86.61;62755.84;5044891;28;20229;-80
2023/03/07 06:04:45;;;;;;;13.13;8.35;;;;;;;7.66;85.47;62791.34;5045250;28;20205;-80
2023/03/07 06:07:12;;;;;;;13.63;8.27;;;;;;;7.71;84.94;62790.91;5047773;28;20218;-78
2023/03/07 06:09:39;;;;;;;9.60;7.90;;;;;;;7.84;84.36;62804.34;5047282;28;20232;-80
2023/03/07 06:12:09;;;;;;;12.02;7.55;;;;;;;7.90;83.23;62808.00;5043585;28;20223;-80
2023/03/07 06:14:36;;;;;;;13.50;8.25;;;;;;;8.05;82.40;62826.03;5029544;28;20511;-80
2023/03/07 06:17:06;;;;;;;12.70;8.05;;;;;;;8.13;80.31;62836.81;5026541;28;20234;-78
2023/03/07 06:19:33;;;;;;;15.88;8.70;;;;;;;8.27;79.76;62853.84;5036076;28;20204;-79
2023/03/07 06:22:00;;;;;;;15.70;9.02;;;;;;;8.24;78.00;62845.66;5040473;28;20260;-79
2023/03/07 06:24:28;;;;;;;13.85;8.68;;;;;;;8.05;80.56;62826.53;5040279;28;20218;-81
2023/03/07 06:26:54;;;;;;;13.82;7.60;;;;;;;8.26;80.92;62847.22;5029330;28;20282;-80
2023/03/07 06:29:22;;;;;;;14.25;7.55;;;;;;;8.43;78.39;62867.31;5027871;28;20371;-79
2023/03/07 06:31:50;;;;;;;11.93;7.43;;;;;;;8.65;75.74;62887.50;5041921;28;20252;-81
2023/03/07 06:34:16;;;;;;;13.48;7.45;;;;;;;8.76;74.66;62898.88;5045901;28;20198;-78
2023/03/07 06:36:43;;;;;;;7.97;7.18;;;;;;;8.61;73.90;62883.88;5045554;28;20244;-79
2023/03/07 06:39:10;;;;;;;13.40;7.53;;;;;;;8.70;73.79;62887.59;5042470;28;20206;-80
2023/03/07 06:41:37;;;;;;;8.20;6.43;;;;;;;8.82;73.50;62902.53;5046094;28;20252;-79
2023/03/07 06:44:04;;;;;;;11.88;8.57;;;;;;;8.89;72.91;62915.34;5044888;28;20225;-80
2023/03/07 06:46:32;;;;;;;12.60;7.53;;;;;;;8.91;72.81;62914.88;5046024;28;20534;-79
2023/03/07 06:48:59;;;;;;;10.40;7.50;;;;;;;9.16;70.72;62942.75;5042825;28;20268;-79
2023/03/07 06:51:26;;;;;;;10.52;7.50;;;;;;;9.22;69.43;62946.94;5045031;28;20529;-78
2023/03/07 06:53:53;;;;;;;12.15;7.55;;;;;;;9.23;69.98;62947.44;5045012;28;20383;-79
2023/03/07 06:56:20;;;;;;;9.27;7.20;;;;;;;9.29;68.95;62951.63;5045961;28;20530;-78
2023/03/07 06:58:47;;;;;;;11.50;7.60;;;;;;;9.27;69.19;62951.56;5043262;28;20202;-80
2023/03/07 07:01:18;;;;;;;8.52;7.03;;;;;;;9.41;69.42;62966.03;5045772;28;20228;-80
2023/03/07 07:03:46;;;;;;;10.45;7.43;;;;;;;9.49;68.28;62976.34;5042756;28;20221;-79
2023/03/07 07:06:13;;;;;;;12.43;7.38;;;;;;;9.43;69.26;62965.56;5042732;28;20560;-80
2023/03/07 07:08:40;;;;;;;11.70;7.30;;;;;;;9.63;67.54;62985.75;5046538;28;20217;-78
2023/03/07 07:11:07;;;;;;;10.40;7.00;;;;;;;9.41;68.37;62968.59;5045818;28;20225;-78
2023/03/07 07:13:34;;;;;;;8.55;7.10;;;;;;;9.49;68.18;62974.31;5044700;28;20434;-80
2023/03/07 07:16:05;;;;;;;9.55;7.25;;;;;;;9.68;68.08;62998.53;5046547;28;20194;-80
2023/03/07 07:18:33;;;;;;;10.93;7.20;;;;;;;9.89;67.18;63017.69;5044827;28;20233;-80
2023/03/07 07:21:02;;;;;;;11.05;6.88;;;;;;;10.03;66.69;63027.63;5043741;28;20205;-80
2023/03/07 07:23:29;;;;;;;8.55;7.10;;;;;;;9.66;67.31;62988.84;5044613;28;20200;-77
2023/03/07 07:25:56;;;;;;;11.27;7.20;;;;;;;9.82;67.93;63005.41;5042519;28;20198;-78
2023/03/07 07:28:23;;;;;;;9.57;7.40;;;;;;;9.60;68.89;62988.22;5040388;28;20199;-79
2023/03/07 07:30:50;;;;;;;10.93;7.30;;;;;;;9.83;68.52;63006.41;5042716;28;20211;-80
2023/03/07 07:33:17;;;;;;;8.55;6.80;;;;;;;9.95;68.07;63026.97;5041095;28;20214;-80
2023/03/07 07:35:45;;;;;;;11.27;7.45;;;;;;;10.06;67.20;63035.31;5042083;28;20289;-81
2023/03/07 07:38:13;;;;;;;8.80;6.63;;;;;;;10.24;67.03;63056.47;5033566;28;20233;-79
2023/03/07 07:40:40;;;;;;;11.27;6.60;;;;;;;10.41;65.19;63066.44;5042133;28;20198;-79
2023/03/07 07:43:07;;;;;;;9.65;7.75;;;;;;;10.63;64.74;63091.75;5040394;28;20307;-79
2023/03/07 07:45:37;;;;;;;8.07;6.28;;;;;;;10.68;63.62;63096.94;5046089;28;20202;-79
2023/03/07 07:48:04;;;;;;;9.48;6.13;;;;;;;10.77;62.46;63106.25;5045374;28;20546;-79
2023/03/07 07:50:30;;;;;;;6.72;5.95;;;;;;;10.64;62.19;63092.78;5043381;28;20220;-77
2023/03/07 07:52:58;;;;;;;8.32;6.47;;;;;;;10.76;61.69;63107.25;5043536;28;20245;-78
2023/03/07 07:55:27;;;;;;;13.77;7.70;;;;;;;10.85;60.31;63117.09;5044422;28;20220;-78
2023/03/07 07:57:54;;;;;;;9.18;6.25;;;;;;;10.58;61.20;63088.63;5043868;28;20229;-77
2023/03/07 08:00:21;;;;;;;9.70;6.63;;;;;;;10.29;62.29;63057.09;5043919;28;20216;-77
2023/03/07 08:02:49;;;;;;;11.95;6.30;;;;;;;10.61;61.51;63094.25;5044410;28;20229;-77
2023/03/07 08:05:16;;;;;;;13.25;6.25;;;;;;;10.71;60.41;63099.53;5025679;28;20217;-79
2023/03/07 08:07:43;;;;;;;11.68;6.93;;;;;;;10.56;61.26;63089.09;5024768;28;20301;-79
2023/03/07 08:10:14;;;;;;;9.48;6.55;;;;;;;10.62;61.78;63092.75;5037061;28;20233;-79
2023/03/07 08:12:43;;;;;;;9.38;6.40;;;;;;;10.72;59.71;63100.53;5046228;28;20225;-79
2023/03/07 08:15:11;;;;;;;14.13;6.03;;;;;;;10.84;60.66;63112.97;5045356;28;20202;-79
2023/03/07 08:17:38;;;;;;;6.75;5.90;;;;;;;10.62;60.59;63092.75;5043498;28;20279;-78
2023/03/07 08:20:08;;;;;;;6.95;5.88;;;;;;;10.76;60.43;63107.75;5045830;28;20252;-79
2023/03/07 08:22:36;;;;;;;7.80;7.03;;;;;;;11.03;60.74;63130.09;5037975;28;20261;-80
2023/03/07 08:25:03;;;;;;;7.03;5.47;;;;;;;11.08;59.87;63135.78;5042387;28;20218;-79
2023/03/07 08:27:31;;;;;;;8.15;6.03;;;;;;;11.17;59.58;63150.22;5049170;28;20264;-79
2023/03/07 08:30:00;;;;;;;9.13;5.47;;;;;;;11.20;58.89;63153.31;5051183;28;20241;-80
2023/03/07 08:32:28;;;;;;;8.40;5.10;;;;;;;10.94;59.30;63126.38;5047977;28;20340;-78
2023/03/07 08:34:55;;;;;;;8.82;5.78;;;;;;;10.95;58.96;63124.38;5047459;28;20201;-79
2023/03/07 08:37:22;;;;;;;13.18;6.70;;;;;;;10.66;60.17;63099.97;5048079;28;20518;-79
2023/03/07 08:39:49;;;;;;;8.35;6.57;;;;;;;10.47;60.67;63075.19;5050002;28;20452;-78
2023/03/07 08:42:16;;;;;;;11.07;5.75;;;;;;;10.69;60.48;63100.50;5048987;28;20248;-78
2023/03/07 08:44:43;;;;;;;9.57;6.90;;;;;;;10.75;59.39;63109.25;5048581;28;20225;-81
2023/03/07 08:47:12;;;;;;;10.25;6.78;;;;;;;10.79;59.24;63113.41;5048356;28;20225;-81
2023/03/07 08:49:39;;;;;;;10.68;5.57;;;;;;;10.90;58.93;63119.19;5048606;28;20266;-80
2023/03/07 08:52:06;;;;;;;7.80;5.72;;;;;;;11.13;57.97;63145.56;5046653;28;20232;-79
2023/03/07 08:54:34;;;;;;;6.88;5.93;;;;;;;11.24;57.38;63154.38;5049555;28;20220;-80
2023/03/07 08:57:01;;;;;;;7.65;4.82;;;;;;;11.27;57.32;63158.00;5049390;28;20838;-80
2023/03/07 08:59:28;;;;;;;10.40;6.15;;;;;;;11.24;57.91;63154.91;5049780;28;20213;-78
2023/03/07 09:01:57;;;;;;;6.40;5.47;;;;;;;11.44;57.52;63172.56;5045391;28;20289;-80
2023/03/07 09:04:25;;;;;;;10.70;6.10;;;;;;;11.68;56.96;63200.00;5044247;28;20205;-78
2023/03/07 09:06:53;;;;;;;6.07;5.47;;;;;;;11.69;56.03;63203.56;5044824;28;20276;-78
2023/03/07 09:09:20;;;;;;;6.20;5.20;;;;;;;11.81;54.92;63213.47;5033626;28;20213;-79
2023/03/07 09:11:47;;;;;;;9.93;5.30;;;;;;;11.78;55.08;63212.91;5048053;28;20420;-80
2023/03/07 09:14:14;;;;;;;9.75;6.22;;;;;;;11.92;55.76;63229.97;5046627;28;20225;-78
2023/03/07 09:16:40;;;;;;;9.23;5.95;;;;;;;11.97;55.32;63232.59;5048499;28;20370;-77
2023/03/07 09:19:07;;;;;;;7.07;5.18;;;;;;;11.91;53.40;63226.38;5046741;28;20588;-78
2023/03/07 09:21:35;;;;;;;7.70;5.32;;;;;;;11.71;53.71;63205.13;5046673;28;20542;-79
2023/03/07 09:24:03;;;;;;;8.30;5.57;;;;;;;11.82;53.37;63219.09;5045762;28;20214;-79
2023/03/07 09:26:30;;;;;;;8.20;5.32;;;;;;;11.93;53.77;63222.81;5046843;28;20233;-78
2023/03/07 09:28:57;;;;;;;6.68;5.65;;;;;;;11.99;52.93;63234.66;5047923;28;20205;-79
2023/03/07 09:31:24;;;;;;;5.47;4.90;;;;;;;12.11;51.41;63241.47;5048465;28;20510;-79
2023/03/07 09:33:51;;;;;;;7.28;4.85;;;;;;;12.20;51.59;63258.97;5044481;28;20198;-78
2023/03/07 09:36:19;;;;;;;9.23;4.97;;;;;;;12.45;51.32;63276.72;5045942;28;20610;-78
2023/03/07 09:38:48;;;;;;;6.88;4.88;;;;;;;12.52;51.36;63289.06;5047140;28;20271;-79
2023/03/07 09:41:42;;;;;;;6.65;4.70;;;;;;;12.71;48.86;63306.22;5044872;28;20230;-78
2023/03/07 09:44:19;;;;;;;8.05;4.60;;;;;;;12.52;49.84;63287.03;5047108;28;20201;-79
2023/03/07 09:47:02;;;;;;;7.45;4.88;;;;;;;12.24;50.06;63252.91;5046314;28;20225;-77
2023/03/07 09:49:37;;;;;;;7.72;4.80;;;;;;;12.04;49.90;63237.28;5046802;28;20214;-78
2023/03/07 09:52:11;;;;;;;7.15;4.28;;;;;;;11.91;50.24;63223.31;5044130;28;20221;-77
2023/03/07 09:54:44;;;;;;;6.97;4.72;;;;;;;12.10;50.70;63245.53;5044341;28;20229;-79
2023/03/07 09:57:17;;;;;;;6.95;4.90;;;;;;;12.29;50.70;63265.75;5046928;28;20241;-79
2023/03/07 09:59:47;;;;;;;9.27;4.47;;;;;;;12.45;50.66;63281.81;5046998;28;20206;-78
2023/03/07 10:02:21;;;;;;;7.32;4.65;;;;;;;12.27;50.91;63261.13;5048083;28;20245;-77
2023/03/07 10:04:56;;;;;;;4.72;4.32;;;;;;;12.28;50.59;63259.63;5045061;28;20198;-79
2023/03/07 10:07:25;;;;;;;8.18;3.55;;;;;;;12.35;50.04;63271.97;5047042;28;20217;-78
2023/03/07 10:09:57;;;;;;;4.53;3.78;;;;;;;12.49;50.66;63283.41;5047583;28;20198;-78
2023/03/07 10:12:43;;;;;;;4.43;4.03;;;;;;;12.78;49.80;63316.56;5047005;28;20252;-78
2023/03/07 10:15:28;;;;;;;3.85;3.47;;;;;;;12.96;49.77;63334.19;5037146;28;20261;-79
2023/03/07 10:18:24;;;;;;;4.82;3.30;;;;;;;12.63;48.60;63300.50;5046446;28;20297;-78
2023/03/07 10:20:57;;;;;;;3.58;3.35;;;;;;;12.76;49.51;63313.97;5041800;28;20210;-79
2023/03/07 10:23:37;;;;;;;8.60;3.45;;;;;;;12.94;49.11;63329.56;5046268;28;20205;-79
2023/03/07 10:26:11;;;;;;;30.05;5.57;;;;;;;12.97;48.70;63335.22;5042062;28;20202;-79
2023/03/07 10:28:40;;;;;;;4.00;3.70;;;;;;;12.89;47.69;63324.38;5042127;28;20209;-77
2023/03/07 10:31:16;;;;;;;7.43;3.83;;;;;;;12.68;48.30;63303.13;5039440;28;20218;-77
2023/03/07 10:33:47;;;;;;;5.28;4.10;;;;;;;12.35;49.47;63271.97;5046718;28;20197;-80
2023/03/07 10:36:19;;;;;;;6.53;4.13;;;;;;;12.41;49.60;63277.66;5045964;28;20530;-79
2023/03/07 10:38:58;;;;;;;5.90;3.65;;;;;;;12.56;48.49;63293.72;5044963;28;20257;-79
2023/03/07 10:41:27;;;;;;;8.65;4.80;;;;;;;12.58;48.88;63295.81;5046331;28;20230;-79
2023/03/07 10:43:55;;;;;;;7.47;3.15;;;;;;;12.66;47.74;63304.13;5044409;28;20194;-77
2023/03/07 10:46:24;;;;;;;6.00;3.45;;;;;;;12.53;47.69;63292.66;5043607;28;20237;-79
2023/03/07 10:48:54;;;;;;;9.95;3.90;;;;;;;12.52;47.66;63289.06;5042044;28;20415;-79
2023/03/07 10:51:36;;;;;;;9.35;3.47;;;;;;;12.65;47.10;63303.06;5044340;28;20222;-78
2023/03/07 10:54:05;;;;;;;3.83;3.08;;;;;;;12.53;46.27;63290.09;5040972;28;20383;-77
2023/03/07 10:56:33;;;;;;;7.85;3.20;;;;;;;12.82;46.34;63318.16;5041556;28;20217;-77
2023/03/07 10:59:02;;;;;;;5.38;3.42;;;;;;;12.98;44.95;63339.34;5045004;28;20249;-77
2023/03/07 11:01:30;;;;;;;4.65;2.75;;;;;;;13.35;45.83;63374.66;5040476;28;20245;-78
2023/03/07 11:04:02;;;;;;;9.55;3.28;;;;;;;13.69;44.98;63410.47;5044887;28;20205;-79
2023/03/07 11:06:36;;;;;;;13.73;2.88;;;;;;;14.12;43.71;63454.56;5046016;28;20217;-79
2023/03/07 11:09:17;;;;;;;17.17;2.58;;;;;;;14.24;39.41;63467.03;5046837;28;20208;-80
2023/03/07 11:11:50;;;;;;;1.38;1.05;;;;;;;14.37;37.74;63478.00;5047129;28;20235;-79
2023/03/07 11:14:20;;;;;;;1.77;1.30;;;;;;;14.45;36.31;63488.88;5034825;28;20518;-80
2023/03/07 11:16:56;;;;;;;5.60;1.45;;;;;;;14.75;36.42;63517.44;5026898;28;20217;-79
2023/03/07 11:19:35;;;;;;;3.45;1.90;;;;;;;14.72;36.63;63514.34;5042370;28;20544;-78
2023/03/07 11:22:05;;;;;;;2.10;1.58;;;;;;;14.95;38.19;63538.25;5046118;28;20228;-80
2023/03/07 11:24:38;;;;;;;1.63;1.52;;;;;;;15.18;37.90;63564.19;5047306;28;20264;-78
2023/03/07 11:27:07;;;;;;;2.03;1.73;;;;;;;15.31;37.03;63577.16;5042372;28;20221;-80
2023/03/07 11:29:34;;;;;;;1.60;1.50;;;;;;;15.34;37.49;63580.81;5044307;28;20239;-78
2023/03/07 11:32:12;;;;;;;1.50;1.40;;;;;;;15.47;35.96;63596.38;5041940;28;20263;-80
2023/03/07 11:34:47;;;;;;;2.35;1.70;;;;;;;15.90;35.92;63636.47;5039918;28;20256;-79
2023/03/07 11:37:26;;;;;;;1.63;1.52;;;;;;;16.10;34.65;63656.75;5048623;28;20223;-80
2023/03/07 11:40:03;;;;;;;1.73;1.63;;;;;;;15.87;35.10;63635.41;5044827;28;20237;-78
2023/03/07 11:42:38;;;;;;;1.35;1.25;;;;;;;16.21;35.19;63670.75;5048274;28;20217;-81
2023/03/07 11:45:21;;;;;;;1.98;1.48;;;;;;;16.37;33.67;63682.28;5047267;28;20197;-80